sensor_id;sensor_type;location;lat;lon;timestamp;temperature;humidity
37204;DHT22;23098;48.054;10.636;2022-08-21T00:00:14;14.40;99.90
37204;DHT22;23098;48.054;10.636;2022-08-21T00:02:54;14.30;99.90
37204;DHT22;23098;48.054;10.636;2022-08-21T00:05:23;14.30;99.90
37204;DHT22;23098;48.054;10.636;2022-08-21T00:07:51;14.30;99.90
37204;DHT22;23098;48.054;10.636;2022-08-21T00:10:19;14.20;99.90
37204;DHT22;23098;48.054;10.636;2022-08-21T00:12:49;14.20;99.90
37204;DHT22;23098;48.054;10.636;2022-08-21T00:15:19;14.10;99.90
37204;DHT22;23098;48.054;10.636;2022-08-21T00:17:45;14.10;99.90
37204;DHT22;23098;48.054;10.636;2022-08-21T00:20:15;14.10;99.90
37204;DHT22;23098;48.054;10.636;2022-08-21T00:22:44;14.00;99.90
37204;DHT22;23098;48.054;10.636;2022-08-21T00:25:11;14.00;99.90
37204;DHT22;23098;48.054;10.636;2022-08-21T00:27:40;14.00;99.90
37204;DHT22;23098;48.054;10.636;2022-08-21T00:30:17;13.90;99.90
37204;DHT22;23098;48.054;10.636;2022-08-21T00:32:45;13.80;99.90
37204;DHT22;23098;48.054;10.636;2022-08-21T00:35:18;13.80;99.90
37204;DHT22;23098;48.054;10.636;2022-08-21T00:37:47;13.80;99.90
37204;DHT22;23098;48.054;10.636;2022-08-21T00:40:19;13.80;99.90
37204;DHT22;23098;48.054;10.636;2022-08-21T00:42:45;13.70;99.90
37204;DHT22;23098;48.054;10.636;2022-08-21T00:45:14;13.70;99.90
37204;DHT22;23098;48.054;10.636;2022-08-21T00:47:40;13.60;99.90
37204;DHT22;23098;48.054;10.636;2022-08-21T00:50:08;13.60;99.90
37204;DHT22;23098;48.054;10.636;2022-08-21T00:52:38;13.50;99.90
37204;DHT22;23098;48.054;10.636;2022-08-21T00:55:07;13.50;99.90
37204;DHT22;23098;48.054;10.636;2022-08-21T00:57:47;13.50;99.90
37204;DHT22;23098;48.054;10.636;2022-08-21T01:00:28;13.50;99.90
37204;DHT22;23098;48.054;10.636;2022-08-21T01:02:55;13.50;99.90
37204;DHT22;23098;48.054;10.636;2022-08-21T01:05:23;13.40;99.90
37204;DHT22;23098;48.054;10.636;2022-08-21T01:07:53;13.50;99.90
37204;DHT22;23098;48.054;10.636;2022-08-21T01:10:22;13.50;99.90
37204;DHT22;23098;48.054;10.636;2022-08-21T01:12:52;13.50;99.90
37204;DHT22;23098;48.054;10.636;2022-08-21T01:15:20;13.50;99.90
37204;DHT22;23098;48.054;10.636;2022-08-21T01:17:48;13.50;99.90
37204;DHT22;23098;48.054;10.636;2022-08-21T01:20:15;13.40;99.90
37204;DHT22;23098;48.054;10.636;2022-08-21T01:22:41;13.30;99.90
37204;DHT22;23098;48.054;10.636;2022-08-21T01:25:08;13.30;99.90
37204;DHT22;23098;48.054;10.636;2022-08-21T01:27:36;13.30;99.90
37204;DHT22;23098;48.054;10.636;2022-08-21T01:30:11;13.30;99.90
37204;DHT22;23098;48.054;10.636;2022-08-21T01:32:39;13.30;99.90
37204;DHT22;23098;48.054;10.636;2022-08-21T01:35:09;13.30;99.90
37204;DHT22;23098;48.054;10.636;2022-08-21T01:37:37;13.30;99.90
37204;DHT22;23098;48.054;10.636;2022-08-21T01:40:05;13.30;99.90
37204;DHT22;23098;48.054;10.636;2022-08-21T01:42:33;13.30;99.90
37204;DHT22;23098;48.054;10.636;2022-08-21T01:44:59;13.30;99.90
37204;DHT22;23098;48.054;10.636;2022-08-21T01:47:24;13.20;99.90
37204;DHT22;23098;48.054;10.636;2022-08-21T01:49:50;13.20;99.90
37204;DHT22;23098;48.054;10.636;2022-08-21T01:52:16;13.20;99.90
37204;DHT22;23098;48.054;10.636;2022-08-21T01:54:42;13.20;99.90
37204;DHT22;23098;48.054;10.636;2022-08-21T01:57:10;13.00;99.90
37204;DHT22;23098;48.054;10.636;2022-08-21T01:59:38;13.00;99.90
37204;DHT22;23098;48.054;10.636;2022-08-21T02:02:05;13.10;99.90
37204;DHT22;23098;48.054;10.636;2022-08-21T02:04:31;13.10;99.90
37204;DHT22;23098;48.054;10.636;2022-08-21T02:06:59;13.00;99.90
37204;DHT22;23098;48.054;10.636;2022-08-21T02:09:30;13.00;99.90
37204;DHT22;23098;48.054;10.636;2022-08-21T02:11:59;13.00;99.90
37204;DHT22;23098;48.054;10.636;2022-08-21T02:14:26;13.00;99.90
37204;DHT22;23098;48.054;10.636;2022-08-21T02:16:52;13.00;99.90
37204;DHT22;23098;48.054;10.636;2022-08-21T02:19:20;13.10;99.90
37204;DHT22;23098;48.054;10.636;2022-08-21T02:21:46;13.10;99.90
37204;DHT22;23098;48.054;10.636;2022-08-21T02:24:15;13.20;99.90
37204;DHT22;23098;48.054;10.636;2022-08-21T02:26:41;13.20;99.90
37204;DHT22;23098;48.054;10.636;2022-08-21T02:29:12;13.20;99.90
37204;DHT22;23098;48.054;10.636;2022-08-21T02:31:39;13.10;99.90
37204;DHT22;23098;48.054;10.636;2022-08-21T02:34:05;13.20;99.90
37204;DHT22;23098;48.054;10.636;2022-08-21T02:36:33;13.20;99.90
37204;DHT22;23098;48.054;10.636;2022-08-21T02:39:00;13.30;99.90
37204;DHT22;23098;48.054;10.636;2022-08-21T02:41:25;13.30;99.90
37204;DHT22;23098;48.054;10.636;2022-08-21T02:43:55;13.30;99.90
37204;DHT22;23098;48.054;10.636;2022-08-21T02:46:26;13.30;99.90
37204;DHT22;23098;48.054;10.636;2022-08-21T02:48:55;13.30;99.90
37204;DHT22;23098;48.054;10.636;2022-08-21T02:51:20;13.30;99.90
37204;DHT22;23098;48.054;10.636;2022-08-21T02:53:51;13.30;99.90
37204;DHT22;23098;48.054;10.636;2022-08-21T02:56:21;13.30;99.90
37204;DHT22;23098;48.054;10.636;2022-08-21T02:58:52;13.30;99.90
37204;DHT22;23098;48.054;10.636;2022-08-21T03:01:19;13.30;99.90
37204;DHT22;23098;48.054;10.636;2022-08-21T03:03:46;13.30;99.90
37204;DHT22;23098;48.054;10.636;2022-08-21T03:06:19;13.20;99.90
37204;DHT22;23098;48.054;10.636;2022-08-21T03:08:58;13.20;99.90
37204;DHT22;23098;48.054;10.636;2022-08-21T03:11:28;13.20;99.90
37204;DHT22;23098;48.054;10.636;2022-08-21T03:13:55;13.10;99.90
37204;DHT22;23098;48.054;10.636;2022-08-21T03:16:25;13.00;99.90
37204;DHT22;23098;48.054;10.636;2022-08-21T03:18:52;12.90;99.90
37204;DHT22;23098;48.054;10.636;2022-08-21T03:21:22;12.80;99.90
37204;DHT22;23098;48.054;10.636;2022-08-21T03:23:49;12.70;99.90
37204;DHT22;23098;48.054;10.636;2022-08-21T03:26:16;12.60;99.90
37204;DHT22;23098;48.054;10.636;2022-08-21T03:28:45;12.60;99.90
37204;DHT22;23098;48.054;10.636;2022-08-21T03:31:11;12.60;99.90
37204;DHT22;23098;48.054;10.636;2022-08-21T03:33:39;12.70;99.90
37204;DHT22;23098;48.054;10.636;2022-08-21T03:36:08;12.70;99.90
37204;DHT22;23098;48.054;10.636;2022-08-21T03:38:36;12.70;99.90
37204;DHT22;23098;48.054;10.636;2022-08-21T03:41:03;12.80;99.90
37204;DHT22;23098;48.054;10.636;2022-08-21T03:43:31;12.80;99.90
37204;DHT22;23098;48.054;10.636;2022-08-21T03:46:00;12.80;99.90
37204;DHT22;23098;48.054;10.636;2022-08-21T03:48:26;12.80;99.90
37204;DHT22;23098;48.054;10.636;2022-08-21T03:50:52;12.80;99.90
37204;DHT22;23098;48.054;10.636;2022-08-21T03:53:18;12.80;99.90
37204;DHT22;23098;48.054;10.636;2022-08-21T03:55:47;12.80;99.90
37204;DHT22;23098;48.054;10.636;2022-08-21T03:58:14;12.90;99.90
37204;DHT22;23098;48.054;10.636;2022-08-21T04:00:40;12.90;99.90
37204;DHT22;23098;48.054;10.636;2022-08-21T04:03:08;12.90;99.90
37204;DHT22;23098;48.054;10.636;2022-08-21T04:05:34;12.80;99.90
37204;DHT22;23098;48.054;10.636;2022-08-21T04:08:04;12.80;99.90
37204;DHT22;23098;48.054;10.636;2022-08-21T04:10:32;12.70;99.90
37204;DHT22;23098;48.054;10.636;2022-08-21T04:13:03;12.60;99.90
37204;DHT22;23098;48.054;10.636;2022-08-21T04:15:32;12.60;99.90
37204;DHT22;23098;48.054;10.636;2022-08-21T04:17:58;12.50;99.90
37204;DHT22;23098;48.054;10.636;2022-08-21T04:20:25;12.50;99.90
37204;DHT22;23098;48.054;10.636;2022-08-21T04:22:53;12.60;99.90
37204;DHT22;23098;48.054;10.636;2022-08-21T04:25:22;12.60;99.90
37204;DHT22;23098;48.054;10.636;2022-08-21T04:27:48;12.60;99.90
37204;DHT22;23098;48.054;10.636;2022-08-21T04:30:16;12.60;99.90
37204;DHT22;23098;48.054;10.636;2022-08-21T04:32:46;12.60;99.90
37204;DHT22;23098;48.054;10.636;2022-08-21T04:35:13;12.70;99.90
37204;DHT22;23098;48.054;10.636;2022-08-21T04:37:39;12.70;99.90
37204;DHT22;23098;48.054;10.636;2022-08-21T04:40:06;12.70;99.90
37204;DHT22;23098;48.054;10.636;2022-08-21T04:42:42;12.80;99.90
37204;DHT22;23098;48.054;10.636;2022-08-21T04:45:09;12.80;99.90
37204;DHT22;23098;48.054;10.636;2022-08-21T04:47:35;12.90;99.90
37204;DHT22;23098;48.054;10.636;2022-08-21T04:50:01;12.90;99.90
37204;DHT22;23098;48.054;10.636;2022-08-21T04:52:28;13.00;99.90
37204;DHT22;23098;48.054;10.636;2022-08-21T04:54:54;13.10;99.90
37204;DHT22;23098;48.054;10.636;2022-08-21T04:57:20;13.30;99.90
37204;DHT22;23098;48.054;10.636;2022-08-21T04:59:48;13.40;99.90
37204;DHT22;23098;48.054;10.636;2022-08-21T05:02:21;13.60;99.90
37204;DHT22;23098;48.054;10.636;2022-08-21T05:04:51;13.80;99.90
37204;DHT22;23098;48.054;10.636;2022-08-21T05:07:23;14.10;99.90
37204;DHT22;23098;48.054;10.636;2022-08-21T05:09:50;14.50;99.90
37204;DHT22;23098;48.054;10.636;2022-08-21T05:12:16;15.20;99.90
37204;DHT22;23098;48.054;10.636;2022-08-21T05:14:43;16.60;99.90
37204;DHT22;23098;48.054;10.636;2022-08-21T05:17:09;17.70;99.90
37204;DHT22;23098;48.054;10.636;2022-08-21T05:19:36;18.30;99.90
37204;DHT22;23098;48.054;10.636;2022-08-21T05:22:02;18.90;99.90
37204;DHT22;23098;48.054;10.636;2022-08-21T05:24:28;18.90;99.90
37204;DHT22;23098;48.054;10.636;2022-08-21T05:26:57;19.60;99.90
37204;DHT22;23098;48.054;10.636;2022-08-21T05:29:24;20.20;99.90
37204;DHT22;23098;48.054;10.636;2022-08-21T05:31:50;20.30;99.90
37204;DHT22;23098;48.054;10.636;2022-08-21T05:34:22;19.90;99.90
37204;DHT22;23098;48.054;10.636;2022-08-21T05:36:48;20.10;99.90
37204;DHT22;23098;48.054;10.636;2022-08-21T05:39:14;20.40;99.90
37204;DHT22;23098;48.054;10.636;2022-08-21T05:41:46;21.00;99.90
37204;DHT22;23098;48.054;10.636;2022-08-21T05:44:13;20.80;99.90
37204;DHT22;23098;48.054;10.636;2022-08-21T05:46:38;19.90;99.90
37204;DHT22;23098;48.054;10.636;2022-08-21T05:49:04;19.20;99.90
37204;DHT22;23098;48.054;10.636;2022-08-21T05:51:31;19.30;99.90
37204;DHT22;23098;48.054;10.636;2022-08-21T05:54:02;19.90;99.90
37204;DHT22;23098;48.054;10.636;2022-08-21T05:56:32;20.80;99.90
37204;DHT22;23098;48.054;10.636;2022-08-21T05:59:01;21.80;99.90
37204;DHT22;23098;48.054;10.636;2022-08-21T06:01:29;21.60;99.90
37204;DHT22;23098;48.054;10.636;2022-08-21T06:03:55;20.80;99.90
37204;DHT22;23098;48.054;10.636;2022-08-21T06:06:21;20.20;99.90
37204;DHT22;23098;48.054;10.636;2022-08-21T06:08:47;19.90;99.90
37204;DHT22;23098;48.054;10.636;2022-08-21T06:11:18;20.70;99.90
37204;DHT22;23098;48.054;10.636;2022-08-21T06:13:50;21.30;99.90
37204;DHT22;23098;48.054;10.636;2022-08-21T06:16:17;22.10;99.90
37204;DHT22;23098;48.054;10.636;2022-08-21T06:18:44;22.70;99.90
37204;DHT22;23098;48.054;10.636;2022-08-21T06:21:10;22.90;99.90
37204;DHT22;23098;48.054;10.636;2022-08-21T06:23:37;22.90;99.90
37204;DHT22;23098;48.054;10.636;2022-08-21T06:26:03;23.00;99.90
37204;DHT22;23098;48.054;10.636;2022-08-21T06:28:30;23.00;99.90
37204;DHT22;23098;48.054;10.636;2022-08-21T06:30:56;22.90;99.90
37204;DHT22;23098;48.054;10.636;2022-08-21T06:33:24;23.00;99.90
37204;DHT22;23098;48.054;10.636;2022-08-21T06:35:50;23.20;99.90
37204;DHT22;23098;48.054;10.636;2022-08-21T06:38:16;23.50;99.90
37204;DHT22;23098;48.054;10.636;2022-08-21T06:40:42;23.30;99.90
37204;DHT22;23098;48.054;10.636;2022-08-21T06:48:25;22.70;99.90
37204;DHT22;23098;48.054;10.636;2022-08-21T06:50:51;22.00;99.90
37204;DHT22;23098;48.054;10.636;2022-08-21T06:53:20;21.30;99.90
37204;DHT22;23098;48.054;10.636;2022-08-21T06:55:47;20.90;99.90
37204;DHT22;23098;48.054;10.636;2022-08-21T06:58:13;20.50;99.90
37204;DHT22;23098;48.054;10.636;2022-08-21T07:00:44;20.00;99.90
37204;DHT22;23098;48.054;10.636;2022-08-21T07:03:37;19.80;99.90
37204;DHT22;23098;48.054;10.636;2022-08-21T07:06:08;19.60;99.90
37204;DHT22;23098;48.054;10.636;2022-08-21T07:08:35;19.50;99.90
37204;DHT22;23098;48.054;10.636;2022-08-21T07:11:03;19.40;99.90
37204;DHT22;23098;48.054;10.636;2022-08-21T07:13:30;19.40;99.90
37204;DHT22;23098;48.054;10.636;2022-08-21T08:32:16;20.40;99.90
37204;DHT22;23098;48.054;10.636;2022-08-21T08:34:42;20.40;99.90
37204;DHT22;23098;48.054;10.636;2022-08-21T08:39:47;20.40;99.90
37204;DHT22;23098;48.054;10.636;2022-08-21T08:42:20;20.60;99.90
37204;DHT22;23098;48.054;10.636;2022-08-21T08:44:59;20.80;99.90
37204;DHT22;23098;48.054;10.636;2022-08-21T08:47:26;20.80;99.90
37204;DHT22;23098;48.054;10.636;2022-08-21T08:52:42;20.70;99.90
37204;DHT22;23098;48.054;10.636;2022-08-21T08:55:18;20.90;99.90
37204;DHT22;23098;48.054;10.636;2022-08-21T08:57:47;20.90;99.90
37204;DHT22;23098;48.054;10.636;2022-08-21T09:00:17;20.90;99.90
37204;DHT22;23098;48.054;10.636;2022-08-21T09:02:45;21.20;99.90
37204;DHT22;23098;48.054;10.636;2022-08-21T09:05:21;21.30;99.90
37204;DHT22;23098;48.054;10.636;2022-08-21T09:08:26;21.20;99.90
37204;DHT22;23098;48.054;10.636;2022-08-21T09:11:21;21.30;99.90
37204;DHT22;23098;48.054;10.636;2022-08-21T09:16:53;21.70;99.90
37204;DHT22;23098;48.054;10.636;2022-08-21T09:22:23;22.00;99.90
37204;DHT22;23098;48.054;10.636;2022-08-21T09:25:12;22.00;99.90
37204;DHT22;23098;48.054;10.636;2022-08-21T09:27:40;22.20;99.90
37204;DHT22;23098;48.054;10.636;2022-08-21T09:30:07;22.20;99.80
37204;DHT22;23098;48.054;10.636;2022-08-21T09:32:34;22.20;98.00
37204;DHT22;23098;48.054;10.636;2022-08-21T09:35:15;22.20;98.10
37204;DHT22;23098;48.054;10.636;2022-08-21T09:37:52;22.40;99.70
37204;DHT22;23098;48.054;10.636;2022-08-21T09:40:46;22.30;99.40
37204;DHT22;23098;48.054;10.636;2022-08-21T09:43:20;22.30;99.90
37204;DHT22;23098;48.054;10.636;2022-08-21T09:45:48;22.60;99.40
37204;DHT22;23098;48.054;10.636;2022-08-21T09:53:27;22.70;98.90
37204;DHT22;23098;48.054;10.636;2022-08-21T09:56:00;23.00;98.60
37204;DHT22;23098;48.054;10.636;2022-08-21T09:58:47;23.10;98.90
37204;DHT22;23098;48.054;10.636;2022-08-21T10:09:08;23.20;96.50
37204;DHT22;23098;48.054;10.636;2022-08-21T10:11:36;23.30;96.70
37204;DHT22;23098;48.054;10.636;2022-08-21T10:14:05;23.40;97.70
37204;DHT22;23098;48.054;10.636;2022-08-21T10:16:39;23.80;96.00
37204;DHT22;23098;48.054;10.636;2022-08-21T10:30:15;24.10;93.90
37204;DHT22;23098;48.054;10.636;2022-08-21T10:35:36;23.40;96.10
37204;DHT22;23098;48.054;10.636;2022-08-21T10:44:21;25.00;95.30
37204;DHT22;23098;48.054;10.636;2022-08-21T10:46:58;25.30;95.20
37204;DHT22;23098;48.054;10.636;2022-08-21T10:49:59;25.40;94.10
37204;DHT22;23098;48.054;10.636;2022-08-21T11:00:16;25.20;94.20
37204;DHT22;23098;48.054;10.636;2022-08-21T11:03:02;24.90;95.20
37204;DHT22;23098;48.054;10.636;2022-08-21T11:05:37;25.20;95.20
37204;DHT22;23098;48.054;10.636;2022-08-21T11:11:05;25.30;93.10
37204;DHT22;23098;48.054;10.636;2022-08-21T11:13:52;25.40;92.00
37204;DHT22;23098;48.054;10.636;2022-08-21T11:16:39;25.50;92.80
37204;DHT22;23098;48.054;10.636;2022-08-21T11:22:33;25.80;92.60
37204;DHT22;23098;48.054;10.636;2022-08-21T11:27:32;26.20;92.80
37204;DHT22;23098;48.054;10.636;2022-08-21T11:29:59;26.00;92.70
37204;DHT22;23098;48.054;10.636;2022-08-21T11:35:37;25.90;91.70
37204;DHT22;23098;48.054;10.636;2022-08-21T11:38:28;25.60;90.50
37204;DHT22;23098;48.054;10.636;2022-08-21T11:43:47;25.20;91.90
37204;DHT22;23098;48.054;10.636;2022-08-21T11:49:21;24.20;92.70
37204;DHT22;23098;48.054;10.636;2022-08-21T11:57:06;23.80;93.60
37204;DHT22;23098;48.054;10.636;2022-08-21T12:02:20;23.60;93.80
37204;DHT22;23098;48.054;10.636;2022-08-21T12:04:55;23.40;94.60
37204;DHT22;23098;48.054;10.636;2022-08-21T12:07:38;23.30;94.70
37204;DHT22;23098;48.054;10.636;2022-08-21T12:10:30;23.10;95.20
37204;DHT22;23098;48.054;10.636;2022-08-21T12:13:11;23.00;93.30
37204;DHT22;23098;48.054;10.636;2022-08-21T12:15:39;23.20;94.60
37204;DHT22;23098;48.054;10.636;2022-08-21T12:18:32;23.90;92.80
37204;DHT22;23098;48.054;10.636;2022-08-21T12:21:19;23.60;92.00
37204;DHT22;23098;48.054;10.636;2022-08-21T12:26:32;24.60;91.10
37204;DHT22;23098;48.054;10.636;2022-08-21T12:35:01;26.20;91.90
37204;DHT22;23098;48.054;10.636;2022-08-21T12:37:37;26.50;90.20
37204;DHT22;23098;48.054;10.636;2022-08-21T12:40:32;26.50;88.70
37204;DHT22;23098;48.054;10.636;2022-08-21T12:42:59;26.40;89.00
37204;DHT22;23098;48.054;10.636;2022-08-21T12:45:37;26.30;88.00
37204;DHT22;23098;48.054;10.636;2022-08-21T12:51:11;26.50;89.80
37204;DHT22;23098;48.054;10.636;2022-08-21T12:56:10;26.90;90.20
37204;DHT22;23098;48.054;10.636;2022-08-21T12:58:39;27.20;87.80
37204;DHT22;23098;48.054;10.636;2022-08-21T13:01:14;27.10;88.30
37204;DHT22;23098;48.054;10.636;2022-08-21T13:03:43;27.20;88.10
37204;DHT22;23098;48.054;10.636;2022-08-21T13:06:15;27.40;87.20
37204;DHT22;23098;48.054;10.636;2022-08-21T13:08:43;27.50;86.00
37204;DHT22;23098;48.054;10.636;2022-08-21T13:11:10;27.30;84.90
37204;DHT22;23098;48.054;10.636;2022-08-21T13:13:40;27.40;88.10
37204;DHT22;23098;48.054;10.636;2022-08-21T13:16:07;27.60;88.80
37204;DHT22;23098;48.054;10.636;2022-08-21T13:18:36;27.50;87.90
37204;DHT22;23098;48.054;10.636;2022-08-21T13:21:11;27.70;90.20
37204;DHT22;23098;48.054;10.636;2022-08-21T13:23:37;27.60;86.30
37204;DHT22;23098;48.054;10.636;2022-08-21T13:26:32;27.70;86.30
37204;DHT22;23098;48.054;10.636;2022-08-21T13:29:09;27.70;88.60
37204;DHT22;23098;48.054;10.636;2022-08-21T13:31:37;27.90;85.30
37204;DHT22;23098;48.054;10.636;2022-08-21T13:34:05;27.80;86.80
37204;DHT22;23098;48.054;10.636;2022-08-21T13:36:34;27.90;87.50
37204;DHT22;23098;48.054;10.636;2022-08-21T13:39:04;27.60;83.40
37204;DHT22;23098;48.054;10.636;2022-08-21T13:41:35;27.30;85.60
37204;DHT22;23098;48.054;10.636;2022-08-21T13:44:04;27.50;86.90
37204;DHT22;23098;48.054;10.636;2022-08-21T13:46:33;27.60;84.80
37204;DHT22;23098;48.054;10.636;2022-08-21T13:49:00;26.30;86.20
37204;DHT22;23098;48.054;10.636;2022-08-21T13:51:29;25.40;86.70
37204;DHT22;23098;48.054;10.636;2022-08-21T13:53:56;24.80;89.10
37204;DHT22;23098;48.054;10.636;2022-08-21T13:56:24;24.40;89.70
37204;DHT22;23098;48.054;10.636;2022-08-21T13:58:51;24.40;90.40
37204;DHT22;23098;48.054;10.636;2022-08-21T14:01:39;24.20;88.60
37204;DHT22;23098;48.054;10.636;2022-08-21T14:04:31;24.90;90.80
37204;DHT22;23098;48.054;10.636;2022-08-21T14:12:51;26.60;86.60
37204;DHT22;23098;48.054;10.636;2022-08-21T14:15:25;26.70;83.40
37204;DHT22;23098;48.054;10.636;2022-08-21T14:17:54;26.40;85.40
37204;DHT22;23098;48.054;10.636;2022-08-21T14:20:31;26.00;84.40
37204;DHT22;23098;48.054;10.636;2022-08-21T14:22:57;25.90;84.90
37204;DHT22;23098;48.054;10.636;2022-08-21T14:30:27;26.10;86.00
37204;DHT22;23098;48.054;10.636;2022-08-21T14:32:53;25.70;87.20
37204;DHT22;23098;48.054;10.636;2022-08-21T14:35:19;25.80;85.70
37204;DHT22;23098;48.054;10.636;2022-08-21T14:37:47;25.80;84.80
37204;DHT22;23098;48.054;10.636;2022-08-21T14:40:16;26.00;86.50
37204;DHT22;23098;48.054;10.636;2022-08-21T14:42:43;26.20;86.90
37204;DHT22;23098;48.054;10.636;2022-08-21T14:45:26;26.40;84.10
37204;DHT22;23098;48.054;10.636;2022-08-21T14:47:53;26.70;87.20
37204;DHT22;23098;48.054;10.636;2022-08-21T14:50:18;26.60;87.10
37204;DHT22;23098;48.054;10.636;2022-08-21T14:52:44;26.60;86.80
37204;DHT22;23098;48.054;10.636;2022-08-21T14:55:12;26.90;84.20
37204;DHT22;23098;48.054;10.636;2022-08-21T14:57:47;27.00;86.30
37204;DHT22;23098;48.054;10.636;2022-08-21T15:00:15;27.30;84.50
37204;DHT22;23098;48.054;10.636;2022-08-21T15:02:42;27.20;82.70
37204;DHT22;23098;48.054;10.636;2022-08-21T15:05:08;27.20;84.60
37204;DHT22;23098;48.054;10.636;2022-08-21T15:07:33;26.70;84.20
37204;DHT22;23098;48.054;10.636;2022-08-21T15:09:59;26.80;85.30
37204;DHT22;23098;48.054;10.636;2022-08-21T15:12:25;26.90;86.70
37204;DHT22;23098;48.054;10.636;2022-08-21T15:14:51;26.80;84.20
37204;DHT22;23098;48.054;10.636;2022-08-21T15:17:18;26.70;84.00
37204;DHT22;23098;48.054;10.636;2022-08-21T15:19:45;26.80;83.50
37204;DHT22;23098;48.054;10.636;2022-08-21T15:22:11;27.10;84.50
37204;DHT22;23098;48.054;10.636;2022-08-21T15:24:37;27.10;84.70
37204;DHT22;23098;48.054;10.636;2022-08-21T15:27:03;27.00;83.60
37204;DHT22;23098;48.054;10.636;2022-08-21T15:29:31;26.80;84.30
37204;DHT22;23098;48.054;10.636;2022-08-21T15:31:59;26.10;84.00
37204;DHT22;23098;48.054;10.636;2022-08-21T15:34:27;25.80;86.00
37204;DHT22;23098;48.054;10.636;2022-08-21T15:36:54;26.00;85.60
37204;DHT22;23098;48.054;10.636;2022-08-21T15:39:20;26.30;84.80
37204;DHT22;23098;48.054;10.636;2022-08-21T15:41:46;26.40;84.20
37204;DHT22;23098;48.054;10.636;2022-08-21T15:44:12;26.40;83.50
37204;DHT22;23098;48.054;10.636;2022-08-21T15:46:39;26.40;84.50
37204;DHT22;23098;48.054;10.636;2022-08-21T15:49:05;26.50;83.80
37204;DHT22;23098;48.054;10.636;2022-08-21T15:51:32;26.50;82.00
37204;DHT22;23098;48.054;10.636;2022-08-21T15:53:58;26.30;82.50
37204;DHT22;23098;48.054;10.636;2022-08-21T15:56:27;26.20;81.50
37204;DHT22;23098;48.054;10.636;2022-08-21T15:59:00;26.20;84.00
37204;DHT22;23098;48.054;10.636;2022-08-21T16:01:25;26.00;83.30
37204;DHT22;23098;48.054;10.636;2022-08-21T16:03:52;25.80;82.60
37204;DHT22;23098;48.054;10.636;2022-08-21T16:06:20;25.60;83.90
37204;DHT22;23098;48.054;10.636;2022-08-21T16:08:46;25.40;83.50
37204;DHT22;23098;48.054;10.636;2022-08-21T16:11:13;25.30;84.50
37204;DHT22;23098;48.054;10.636;2022-08-21T16:13:41;25.40;83.30
37204;DHT22;23098;48.054;10.636;2022-08-21T16:16:11;25.30;86.10
37204;DHT22;23098;48.054;10.636;2022-08-21T16:18:39;25.50;86.00
37204;DHT22;23098;48.054;10.636;2022-08-21T16:21:06;25.70;85.80
37204;DHT22;23098;48.054;10.636;2022-08-21T16:23:33;25.70;85.40
37204;DHT22;23098;48.054;10.636;2022-08-21T16:26:00;25.60;84.10
37204;DHT22;23098;48.054;10.636;2022-08-21T16:28:27;25.40;83.70
37204;DHT22;23098;48.054;10.636;2022-08-21T16:30:53;25.40;85.00
37204;DHT22;23098;48.054;10.636;2022-08-21T16:35:56;25.40;85.90
37204;DHT22;23098;48.054;10.636;2022-08-21T16:38:22;25.40;85.20
37204;DHT22;23098;48.054;10.636;2022-08-21T16:40:48;25.40;83.50
37204;DHT22;23098;48.054;10.636;2022-08-21T16:43:14;25.30;83.50
37204;DHT22;23098;48.054;10.636;2022-08-21T16:45:41;25.10;83.80
37204;DHT22;23098;48.054;10.636;2022-08-21T16:48:08;25.20;85.00
37204;DHT22;23098;48.054;10.636;2022-08-21T16:50:35;25.00;83.50
37204;DHT22;23098;48.054;10.636;2022-08-21T16:53:01;24.80;84.50
37204;DHT22;23098;48.054;10.636;2022-08-21T16:55:27;24.80;85.10
37204;DHT22;23098;48.054;10.636;2022-08-21T16:57:54;24.70;85.50
37204;DHT22;23098;48.054;10.636;2022-08-21T17:00:20;24.60;85.10
37204;DHT22;23098;48.054;10.636;2022-08-21T17:02:48;24.60;85.00
37204;DHT22;23098;48.054;10.636;2022-08-21T17:05:15;24.60;86.50
37204;DHT22;23098;48.054;10.636;2022-08-21T17:07:42;24.60;85.40
37204;DHT22;23098;48.054;10.636;2022-08-21T17:10:08;24.50;84.50
37204;DHT22;23098;48.054;10.636;2022-08-21T17:12:35;24.30;85.10
37204;DHT22;23098;48.054;10.636;2022-08-21T17:15:06;24.20;84.50
37204;DHT22;23098;48.054;10.636;2022-08-21T17:17:33;24.10;87.50
37204;DHT22;23098;48.054;10.636;2022-08-21T17:19:59;24.00;85.80
37204;DHT22;23098;48.054;10.636;2022-08-21T17:22:24;23.90;87.00
37204;DHT22;23098;48.054;10.636;2022-08-21T17:24:50;23.90;86.60
37204;DHT22;23098;48.054;10.636;2022-08-21T17:27:17;23.80;86.40
37204;DHT22;23098;48.054;10.636;2022-08-21T17:29:44;23.70;87.70
37204;DHT22;23098;48.054;10.636;2022-08-21T17:32:11;23.60;87.30
37204;DHT22;23098;48.054;10.636;2022-08-21T17:34:38;23.50;88.90
37204;DHT22;23098;48.054;10.636;2022-08-21T17:37:04;23.50;90.00
37204;DHT22;23098;48.054;10.636;2022-08-21T17:39:30;23.30;86.80
37204;DHT22;23098;48.054;10.636;2022-08-21T17:42:00;23.30;89.20
37204;DHT22;23098;48.054;10.636;2022-08-21T17:44:44;23.20;89.00
37204;DHT22;23098;48.054;10.636;2022-08-21T17:47:11;23.00;89.30
37204;DHT22;23098;48.054;10.636;2022-08-21T17:49:37;22.90;89.80
37204;DHT22;23098;48.054;10.636;2022-08-21T17:52:03;22.80;91.30
37204;DHT22;23098;48.054;10.636;2022-08-21T17:54:29;22.60;91.60
37204;DHT22;23098;48.054;10.636;2022-08-21T17:56:55;22.50;91.70
37204;DHT22;23098;48.054;10.636;2022-08-21T17:59:22;22.30;91.90
37204;DHT22;23098;48.054;10.636;2022-08-21T18:01:49;22.00;92.60
37204;DHT22;23098;48.054;10.636;2022-08-21T18:04:15;21.80;93.50
37204;DHT22;23098;48.054;10.636;2022-08-21T18:06:41;21.50;94.10
37204;DHT22;23098;48.054;10.636;2022-08-21T18:09:08;21.20;95.80
37204;DHT22;23098;48.054;10.636;2022-08-21T18:11:34;21.00;96.90
37204;DHT22;23098;48.054;10.636;2022-08-21T18:14:02;20.80;99.10
37204;DHT22;23098;48.054;10.636;2022-08-21T18:16:31;20.50;98.40
37204;DHT22;23098;48.054;10.636;2022-08-21T18:18:59;20.30;98.90
37204;DHT22;23098;48.054;10.636;2022-08-21T18:21:26;20.20;99.90
37204;DHT22;23098;48.054;10.636;2022-08-21T18:23:52;20.00;99.90
37204;DHT22;23098;48.054;10.636;2022-08-21T18:26:29;19.90;99.90
37204;DHT22;23098;48.054;10.636;2022-08-21T18:28:57;19.70;99.90
37204;DHT22;23098;48.054;10.636;2022-08-21T18:31:29;19.60;99.90
37204;DHT22;23098;48.054;10.636;2022-08-21T18:33:55;19.50;99.90
37204;DHT22;23098;48.054;10.636;2022-08-21T18:36:21;19.30;99.90